sensor_id;sensor_type;location;lat;lon;timestamp;pressure;altitude;pressure_sealevel;temperature;humidity
78073;BME280;67281;48.770;11.440;2023-01-28T00:01:37;97643.38;;;12.25;42.64
78073;BME280;67281;48.770;11.440;2023-01-28T00:04:04;97645.16;;;12.24;42.36
78073;BME280;67281;48.770;11.440;2023-01-28T00:06:33;97646.00;;;12.25;42.65
78073;BME280;67281;48.770;11.440;2023-01-28T00:09:01;97638.13;;;12.25;42.97
78073;BME280;67281;48.770;11.440;2023-01-28T00:11:27;97634.66;;;12.24;42.44
78073;BME280;67281;48.770;11.440;2023-01-28T00:13:54;97639.91;;;12.24;42.95
78073;BME280;67281;48.770;11.440;2023-01-28T00:16:21;97644.31;;;12.24;42.97
78073;BME280;67281;48.770;11.440;2023-01-28T00:18:48;97646.97;;;12.24;43.04
78073;BME280;67281;48.770;11.440;2023-01-28T00:21:15;97647.91;;;12.23;42.29
78073;BME280;67281;48.770;11.440;2023-01-28T00:23:46;97643.50;;;12.23;42.68
78073;BME280;67281;48.770;11.440;2023-01-28T00:26:14;97647.69;;;12.26;42.92
78073;BME280;67281;48.770;11.440;2023-01-28T00:28:41;97642.53;;;12.24;42.94
78073;BME280;67281;48.770;11.440;2023-01-28T00:31:12;97637.28;;;12.24;42.95
78073;BME280;67281;48.770;11.440;2023-01-28T00:33:39;97649.47;;;12.25;42.86
78073;BME280;67281;48.770;11.440;2023-01-28T00:36:06;97650.44;;;12.24;42.51
78073;BME280;67281;48.770;11.440;2023-01-28T00:38:33;97652.94;;;12.26;42.68
78073;BME280;67281;48.770;11.440;2023-01-28T00:41:15;97647.69;;;12.26;42.31
78073;BME280;67281;48.770;11.440;2023-01-28T00:43:43;97655.69;;;12.24;42.38
78073;BME280;67281;48.770;11.440;2023-01-28T00:46:11;97654.72;;;12.25;42.40
78073;BME280;67281;48.770;11.440;2023-01-28T00:48:40;97654.00;;;12.23;42.82
78073;BME280;67281;48.770;11.440;2023-01-28T00:51:08;97657.47;;;12.24;42.63
78073;BME280;67281;48.770;11.440;2023-01-28T00:53:35;97645.16;;;12.24;42.72
78073;BME280;67281;48.770;11.440;2023-01-28T00:56:05;97658.19;;;12.26;42.95
78073;BME280;67281;48.770;11.440;2023-01-28T00:58:33;97653.06;;;12.24;42.92
78073;BME280;67281;48.770;11.440;2023-01-28T01:01:11;97655.69;;;12.24;42.27
78073;BME280;67281;48.770;11.440;2023-01-28T01:03:38;97657.47;;;12.24;42.38
78073;BME280;67281;48.770;11.440;2023-01-28T01:06:05;97655.69;;;12.24;42.75
78073;BME280;67281;48.770;11.440;2023-01-28T01:08:32;97649.59;;;12.24;42.37
78073;BME280;67281;48.770;11.440;2023-01-28T01:11:07;97666.19;;;12.24;42.86
78073;BME280;67281;48.770;11.440;2023-01-28T01:13:34;97665.34;;;12.24;42.53
78073;BME280;67281;48.770;11.440;2023-01-28T01:16:06;97660.00;;;12.25;42.44
78073;BME280;67281;48.770;11.440;2023-01-28T01:18:34;97661.88;;;12.23;42.85
78073;BME280;67281;48.770;11.440;2023-01-28T01:21:01;97669.66;;;12.25;42.33
78073;BME280;67281;48.770;11.440;2023-01-28T01:23:29;97667.03;;;12.25;42.64
78073;BME280;67281;48.770;11.440;2023-01-28T01:25:56;97662.63;;;12.25;42.61
78073;BME280;67281;48.770;11.440;2023-01-28T01:28:23;97668.09;;;12.22;42.67
78073;BME280;67281;48.770;11.440;2023-01-28T01:30:58;97666.19;;;12.24;42.37
78073;BME280;67281;48.770;11.440;2023-01-28T01:33:25;97663.56;;;12.24;42.51
78073;BME280;67281;48.770;11.440;2023-01-28T01:35:53;97676.69;;;12.24;43.06
78073;BME280;67281;48.770;11.440;2023-01-28T01:38:20;97679.31;;;12.24;42.83
78073;BME280;67281;48.770;11.440;2023-01-28T01:40:47;97673.13;;;12.25;42.68
78073;BME280;67281;48.770;11.440;2023-01-28T01:43:19;97670.50;;;12.25;42.88
78073;BME280;67281;48.770;11.440;2023-01-28T01:45:49;97675.00;;;12.23;42.79
78073;BME280;67281;48.770;11.440;2023-01-28T01:48:20;97681.94;;;12.24;42.36
78073;BME280;67281;48.770;11.440;2023-01-28T01:53:51;97675.84;;;12.24;42.86
78073;BME280;67281;48.770;11.440;2023-01-28T01:56:21;97685.53;;;12.23;42.35
78073;BME280;67281;48.770;11.440;2023-01-28T01:58:52;97679.44;;;12.23;42.93
78073;BME280;67281;48.770;11.440;2023-01-28T02:01:22;97676.69;;;12.24;42.35
78073;BME280;67281;48.770;11.440;2023-01-28T02:04:38;97681.00;;;12.25;42.71
78073;BME280;67281;48.770;11.440;2023-01-28T02:06:59;97677.63;;;12.23;42.69
78073;BME280;67281;48.770;11.440;2023-01-28T02:09:32;97685.63;;;12.22;42.64
78073;BME280;67281;48.770;11.440;2023-01-28T02:12:06;97682.78;;;12.25;42.23
78073;BME280;67281;48.770;11.440;2023-01-28T02:14:37;97689.00;;;12.24;42.79
78073;BME280;67281;48.770;11.440;2023-01-28T02:17:07;97685.63;;;12.22;42.63
78073;BME280;67281;48.770;11.440;2023-01-28T02:19:48;97686.47;;;12.22;42.71
78073;BME280;67281;48.770;11.440;2023-01-28T02:22:21;97696.03;;;12.23;42.77
78073;BME280;67281;48.770;11.440;2023-01-28T02:30:40;97693.41;;;12.23;42.58
78073;BME280;67281;48.770;11.440;2023-01-28T02:33:22;97687.31;;;12.23;42.32
78073;BME280;67281;48.770;11.440;2023-01-28T02:35:53;97700.34;;;12.24;42.65
78073;BME280;67281;48.770;11.440;2023-01-28T02:38:26;97711.69;;;12.25;42.56
78073;BME280;67281;48.770;11.440;2023-01-28T02:41:04;97702.13;;;12.24;42.78
78073;BME280;67281;48.770;11.440;2023-01-28T02:43:43;97710.13;;;12.22;42.95
78073;BME280;67281;48.770;11.440;2023-01-28T02:46:21;97700.34;;;12.24;42.25
78073;BME280;67281;48.770;11.440;2023-01-28T02:49:11;97704.84;;;12.22;42.92
78073;BME280;67281;48.770;11.440;2023-01-28T02:57:18;97709.16;;;12.23;42.54
78073;BME280;67281;48.770;11.440;2023-01-28T03:07:33;97704.84;;;12.22;42.64
78073;BME280;67281;48.770;11.440;2023-01-28T03:10:02;97701.28;;;12.23;42.45
78073;BME280;67281;48.770;11.440;2023-01-28T03:12:34;97701.41;;;12.22;42.26
78073;BME280;67281;48.770;11.440;2023-01-28T03:15:30;97694.34;;;12.22;42.91
78073;BME280;67281;48.770;11.440;2023-01-28T03:18:57;97710.13;;;12.22;42.90
78073;BME280;67281;48.770;11.440;2023-01-28T03:21:43;97702.34;;;12.21;42.88
78073;BME280;67281;48.770;11.440;2023-01-28T03:24:34;97706.66;;;12.22;42.72
78073;BME280;67281;48.770;11.440;2023-01-28T03:27:31;97707.59;;;12.21;42.74
78073;BME280;67281;48.770;11.440;2023-01-28T03:30:22;97709.38;;;12.20;43.01
78073;BME280;67281;48.770;11.440;2023-01-28T03:33:11;97710.31;;;12.19;42.95
78073;BME280;67281;48.770;11.440;2023-01-28T03:35:56;97711.16;;;12.20;42.77
78073;BME280;67281;48.770;11.440;2023-01-28T03:38:44;97712.13;;;12.18;42.64
78073;BME280;67281;48.770;11.440;2023-01-28T03:41:21;97713.69;;;12.21;42.46
78073;BME280;67281;48.770;11.440;2023-01-28T03:43:48;97717.25;;;12.20;42.29
78073;BME280;67281;48.770;11.440;2023-01-28T03:46:16;97718.22;;;12.19;42.87
78073;BME280;67281;48.770;11.440;2023-01-28T03:48:44;97720.84;;;12.19;42.77
78073;BME280;67281;48.770;11.440;2023-01-28T03:51:11;97720.00;;;12.18;42.55
78073;BME280;67281;48.770;11.440;2023-01-28T03:53:38;97725.16;;;12.20;42.95
78073;BME280;67281;48.770;11.440;2023-01-28T03:56:06;97726.09;;;12.19;43.02
78073;BME280;67281;48.770;11.440;2023-01-28T03:58:33;97727.03;;;12.18;42.76
78073;BME280;67281;48.770;11.440;2023-01-28T04:01:12;97720.84;;;12.19;42.32
78073;BME280;67281;48.770;11.440;2023-01-28T04:03:39;97720.94;;;12.17;42.51
78073;BME280;67281;48.770;11.440;2023-01-28T04:06:07;97721.03;;;12.16;42.62
78073;BME280;67281;48.770;11.440;2023-01-28T04:08:34;97730.72;;;12.15;42.67
78073;BME280;67281;48.770;11.440;2023-01-28T04:11:01;97728.09;;;12.15;43.08
78073;BME280;67281;48.770;11.440;2023-01-28T04:13:41;97734.38;;;12.13;42.68
78073;BME280;67281;48.770;11.440;2023-01-28T04:16:09;97735.13;;;12.15;42.82
78073;BME280;67281;48.770;11.440;2023-01-28T04:18:37;97735.97;;;12.15;42.92
78073;BME280;67281;48.770;11.440;2023-01-28T04:21:04;97741.22;;;12.15;42.63
78073;BME280;67281;48.770;11.440;2023-01-28T04:23:31;97738.69;;;12.14;43.07
78073;BME280;67281;48.770;11.440;2023-01-28T04:25:57;97746.69;;;12.12;42.84
78073;BME280;67281;48.770;11.440;2023-01-28T04:28:24;97747.53;;;12.13;42.89
78073;BME280;67281;48.770;11.440;2023-01-28T04:30:51;97746.69;;;12.12;42.92
78073;BME280;67281;48.770;11.440;2023-01-28T04:33:18;97747.53;;;12.13;42.91
78073;BME280;67281;48.770;11.440;2023-01-28T04:35:45;97746.78;;;12.11;42.36
78073;BME280;67281;48.770;11.440;2023-01-28T04:38:12;97756.44;;;12.10;43.01
78073;BME280;67281;48.770;11.440;2023-01-28T04:40:38;97751.31;;;12.09;43.10
78073;BME280;67281;48.770;11.440;2023-01-28T04:43:25;97752.03;;;12.11;42.61
78073;BME280;67281;48.770;11.440;2023-01-28T04:45:52;97750.34;;;12.10;42.44
78073;BME280;67281;48.770;11.440;2023-01-28T04:48:19;97751.31;;;12.09;42.82
78073;BME280;67281;48.770;11.440;2023-01-28T04:50:45;97755.72;;;12.08;42.74
78073;BME280;67281;48.770;11.440;2023-01-28T04:53:12;97753.19;;;12.07;43.15
78073;BME280;67281;48.770;11.440;2023-01-28T04:55:39;97760.13;;;12.08;42.58
78073;BME280;67281;48.770;11.440;2023-01-28T04:58:06;97757.59;;;12.06;42.36
78073;BME280;67281;48.770;11.440;2023-01-28T05:00:33;97761.16;;;12.05;42.42
78073;BME280;67281;48.770;11.440;2023-01-28T05:02:59;97755.91;;;12.05;42.30
78073;BME280;67281;48.770;11.440;2023-01-28T05:05:26;97759.38;;;12.06;43.02
78073;BME280;67281;48.770;11.440;2023-01-28T05:07:55;97763.69;;;12.07;42.34
78073;BME280;67281;48.770;11.440;2023-01-28T05:10:22;97768.22;;;12.05;42.97
78073;BME280;67281;48.770;11.440;2023-01-28T05:12:49;97764.75;;;12.04;43.00
78073;BME280;67281;48.770;11.440;2023-01-28T05:15:17;97766.44;;;12.05;42.73
78073;BME280;67281;48.770;11.440;2023-01-28T05:17:44;97768.31;;;12.03;42.84
78073;BME280;67281;48.770;11.440;2023-01-28T05:20:12;97760.34;;;12.05;42.35
78073;BME280;67281;48.770;11.440;2023-01-28T05:22:39;97764.94;;;12.01;42.67
78073;BME280;67281;48.770;11.440;2023-01-28T05:25:06;97767.47;;;12.03;42.95
78073;BME280;67281;48.770;11.440;2023-01-28T05:27:33;97766.63;;;12.02;42.40
78073;BME280;67281;48.770;11.440;2023-01-28T05:30:00;97767.47;;;12.03;42.63
78073;BME280;67281;48.770;11.440;2023-01-28T05:32:27;97766.63;;;12.02;42.95
78073;BME280;67281;48.770;11.440;2023-01-28T05:34:54;97768.31;;;12.03;43.02
78073;BME280;67281;48.770;11.440;2023-01-28T05:37:20;97772.63;;;12.04;42.30
78073;BME280;67281;48.770;11.440;2023-01-28T05:39:47;97774.63;;;12.01;42.41
78073;BME280;67281;48.770;11.440;2023-01-28T05:42:14;97769.38;;;12.01;42.60
78073;BME280;67281;48.770;11.440;2023-01-28T05:44:41;97762.44;;;12.00;43.01
78073;BME280;67281;48.770;11.440;2023-01-28T05:47:07;97770.19;;;12.01;43.07
78073;BME280;67281;48.770;11.440;2023-01-28T05:49:34;97770.31;;;12.00;42.86
78073;BME280;67281;48.770;11.440;2023-01-28T05:52:01;97763.38;;;11.99;42.43
78073;BME280;67281;48.770;11.440;2023-01-28T05:54:28;97779.03;;;12.00;42.70
78073;BME280;67281;48.770;11.440;2023-01-28T05:56:54;97771.25;;;11.99;42.39
78073;BME280;67281;48.770;11.440;2023-01-28T05:59:21;97773.03;;;11.98;42.29
78073;BME280;67281;48.770;11.440;2023-01-28T06:01:48;97776.50;;;11.99;42.39
78073;BME280;67281;48.770;11.440;2023-01-28T06:04:15;97775.75;;;11.97;42.49
78073;BME280;67281;48.770;11.440;2023-01-28T06:06:44;97781.75;;;11.99;42.32
78073;BME280;67281;48.770;11.440;2023-01-28T06:09:11;97781.75;;;11.99;42.71
78073;BME280;67281;48.770;11.440;2023-01-28T06:11:38;97781.75;;;11.99;42.67
78073;BME280;67281;48.770;11.440;2023-01-28T06:14:05;97792.25;;;11.99;42.44
78073;BME280;67281;48.770;11.440;2023-01-28T06:16:32;97791.41;;;11.98;42.32
78073;BME280;67281;48.770;11.440;2023-01-28T06:18:58;97797.63;;;11.97;43.01
78073;BME280;67281;48.770;11.440;2023-01-28T06:21:25;97799.41;;;11.97;42.47
78073;BME280;67281;48.770;11.440;2023-01-28T06:23:55;97802.03;;;11.97;42.47
78073;BME280;67281;48.770;11.440;2023-01-28T06:26:22;97803.81;;;11.96;42.70
78073;BME280;67281;48.770;11.440;2023-01-28T06:28:51;97804.66;;;11.97;43.01
78073;BME280;67281;48.770;11.440;2023-01-28T06:31:18;97802.88;;;11.97;42.71
78073;BME280;67281;48.770;11.440;2023-01-28T06:33:45;97807.38;;;11.95;42.38
78073;BME280;67281;48.770;11.440;2023-01-28T06:36:12;97823.13;;;11.95;42.34
78073;BME280;67281;48.770;11.440;2023-01-28T06:38:38;97817.03;;;11.95;42.37
78073;BME280;67281;48.770;11.440;2023-01-28T06:41:05;97828.38;;;11.95;42.99
78073;BME280;67281;48.770;11.440;2023-01-28T06:43:32;97831.00;;;11.95;42.48
78073;BME280;67281;48.770;11.440;2023-01-28T06:45:59;97832.81;;;11.95;42.29
78073;BME280;67281;48.770;11.440;2023-01-28T06:48:27;97840.56;;;11.96;42.86
78073;BME280;67281;48.770;11.440;2023-01-28T06:50:54;97841.63;;;11.94;42.78
78073;BME280;67281;48.770;11.440;2023-01-28T06:53:20;97842.47;;;11.94;42.64
78073;BME280;67281;48.770;11.440;2023-01-28T06:55:47;97843.31;;;11.95;42.40
78073;BME280;67281;48.770;11.440;2023-01-28T06:58:14;97845.81;;;11.96;42.71
78073;BME280;67281;48.770;11.440;2023-01-28T07:00:41;97846.78;;;11.95;42.29
78073;BME280;67281;48.770;11.440;2023-01-28T07:03:08;97843.19;;;11.96;42.46
78073;BME280;67281;48.770;11.440;2023-01-28T07:05:35;97855.50;;;11.96;42.67
78073;BME280;67281;48.770;11.440;2023-01-28T07:08:02;97843.31;;;11.95;42.53
78073;BME280;67281;48.770;11.440;2023-01-28T07:10:28;97850.22;;;11.96;42.81
78073;BME280;67281;48.770;11.440;2023-01-28T07:12:55;97856.44;;;11.95;42.28
78073;BME280;67281;48.770;11.440;2023-01-28T07:15:22;97858.13;;;11.96;42.81
78073;BME280;67281;48.770;11.440;2023-01-28T07:17:49;97852.88;;;11.96;42.39
78073;BME280;67281;48.770;11.440;2023-01-28T07:20:17;97859.81;;;11.97;42.58
78073;BME280;67281;48.770;11.440;2023-01-28T07:22:44;97865.06;;;11.97;42.32
78073;BME280;67281;48.770;11.440;2023-01-28T07:25:12;97866.00;;;11.96;42.94
78073;BME280;67281;48.770;11.440;2023-01-28T07:27:49;97872.09;;;11.96;42.51
78073;BME280;67281;48.770;11.440;2023-01-28T07:30:17;97874.81;;;11.95;42.28
78073;BME280;67281;48.770;11.440;2023-01-28T07:32:45;97866.94;;;11.95;42.59
78073;BME280;67281;48.770;11.440;2023-01-28T07:35:12;97868.72;;;11.94;42.86
78073;BME280;67281;48.770;11.440;2023-01-28T07:37:39;97875.66;;;11.95;42.28
78073;BME280;67281;48.770;11.440;2023-01-28T07:40:06;97876.50;;;11.96;42.37
78073;BME280;67281;48.770;11.440;2023-01-28T07:42:33;97884.38;;;11.96;42.64
78073;BME280;67281;48.770;11.440;2023-01-28T07:45:00;97880.06;;;11.95;42.35
78073;BME280;67281;48.770;11.440;2023-01-28T07:47:27;97883.44;;;11.97;42.70
78073;BME280;67281;48.770;11.440;2023-01-28T07:49:54;97887.84;;;11.96;42.39
78073;BME280;67281;48.770;11.440;2023-01-28T07:52:21;97891.31;;;11.97;42.85
78073;BME280;67281;48.770;11.440;2023-01-28T07:54:48;97890.47;;;11.96;42.94
78073;BME280;67281;48.770;11.440;2023-01-28T07:57:14;97896.47;;;11.98;42.68
78073;BME280;67281;48.770;11.440;2023-01-28T07:59:49;97896.56;;;11.97;42.73
78073;BME280;67281;48.770;11.440;2023-01-28T08:02:16;97901.81;;;11.97;42.28
78073;BME280;67281;48.770;11.440;2023-01-28T08:04:45;97900.88;;;11.98;42.41
78073;BME280;67281;48.770;11.440;2023-01-28T08:07:12;97899.09;;;11.98;42.40
78073;BME280;67281;48.770;11.440;2023-01-28T08:09:38;97906.13;;;11.98;42.62
78073;BME280;67281;48.770;11.440;2023-01-28T08:12:05;97907.81;;;11.99;42.89
78073;BME280;67281;48.770;11.440;2023-01-28T08:14:32;97918.31;;;11.99;42.66
78073;BME280;67281;48.770;11.440;2023-01-28T08:16:58;97915.59;;;12.00;42.48
78073;BME280;67281;48.770;11.440;2023-01-28T08:19:25;97912.13;;;12.00;42.55
78073;BME280;67281;48.770;11.440;2023-01-28T08:21:52;97917.38;;;12.00;42.48
78073;BME280;67281;48.770;11.440;2023-01-28T08:24:19;97915.59;;;12.00;42.68
78073;BME280;67281;48.770;11.440;2023-01-28T08:26:47;97915.59;;;12.00;42.53
78073;BME280;67281;48.770;11.440;2023-01-28T08:29:13;97919.91;;;12.01;42.13
78073;BME280;67281;48.770;11.440;2023-01-28T08:31:40;97922.53;;;12.01;42.46
78073;BME280;67281;48.770;11.440;2023-01-28T08:34:07;97927.78;;;12.01;42.14
78073;BME280;67281;48.770;11.440;2023-01-28T08:36:34;97919.91;;;12.01;42.65
78073;BME280;67281;48.770;11.440;2023-01-28T08:39:00;97924.22;;;12.02;42.62
78073;BME280;67281;48.770;11.440;2023-01-28T08:41:28;97919.81;;;12.03;42.70
78073;BME280;67281;48.770;11.440;2023-01-28T08:43:55;97918.03;;;12.03;42.63
78073;BME280;67281;48.770;11.440;2023-01-28T08:46:22;97920.53;;;12.05;42.74
78073;BME280;67281;48.770;11.440;2023-01-28T08:48:49;97914.34;;;12.06;42.49
78073;BME280;67281;48.770;11.440;2023-01-28T08:51:16;97913.41;;;12.07;42.06
78073;BME280;67281;48.770;11.440;2023-01-28T08:53:43;97908.91;;;12.09;42.12
78073;BME280;67281;48.770;11.440;2023-01-28T08:56:09;97913.22;;;12.10;42.65
78073;BME280;67281;48.770;11.440;2023-01-28T08:58:36;97909.75;;;12.09;42.23
78073;BME280;67281;48.770;11.440;2023-01-28T09:01:04;97907.00;;;12.11;42.45
78073;BME280;67281;48.770;11.440;2023-01-28T09:03:32;97913.94;;;12.12;42.13
78073;BME280;67281;48.770;11.440;2023-01-28T09:06:03;97920.88;;;12.13;42.33
78073;BME280;67281;48.770;11.440;2023-01-28T09:08:30;97921.63;;;12.15;42.00
78073;BME280;67281;48.770;11.440;2023-01-28T09:10:57;97920.88;;;12.13;42.62
78073;BME280;67281;48.770;11.440;2023-01-28T09:13:24;97929.72;;;12.12;42.04
78073;BME280;67281;48.770;11.440;2023-01-28T09:15:52;97921.09;;;12.10;42.47
78073;BME280;67281;48.770;11.440;2023-01-28T09:18:19;97922.97;;;12.08;42.11
78073;BME280;67281;48.770;11.440;2023-01-28T09:20:46;97923.91;;;12.07;42.30
78073;BME280;67281;48.770;11.440;2023-01-28T09:23:13;97926.34;;;12.10;42.35
78073;BME280;67281;48.770;11.440;2023-01-28T09:25:40;97929.72;;;12.12;42.06
78073;BME280;67281;48.770;11.440;2023-01-28T09:28:07;97930.47;;;12.14;42.29
78073;BME280;67281;48.770;11.440;2023-01-28T09:30:34;97934.03;;;12.13;42.69
78073;BME280;67281;48.770;11.440;2023-01-28T09:33:03;97933.09;;;12.14;42.19
78073;BME280;67281;48.770;11.440;2023-01-28T09:35:41;97934.13;;;12.11;42.49
78073;BME280;67281;48.770;11.440;2023-01-28T09:38:13;97935.06;;;12.10;42.66
78073;BME280;67281;48.770;11.440;2023-01-28T09:40:42;97942.94;;;12.10;42.24
78073;BME280;67281;48.770;11.440;2023-01-28T09:45:52;97944.63;;;12.11;42.27
78073;BME280;67281;48.770;11.440;2023-01-28T09:48:24;97948.19;;;12.10;42.83
78073;BME280;67281;48.770;11.440;2023-01-28T09:50:56;97952.41;;;12.13;42.55
78073;BME280;67281;48.770;11.440;2023-01-28T09:53:28;97949.88;;;12.11;42.67
78073;BME280;67281;48.770;11.440;2023-01-28T09:56:08;97940.13;;;12.13;42.62
78073;BME280;67281;48.770;11.440;2023-01-28T09:58:36;97942.75;;;12.13;42.90
78073;BME280;67281;48.770;11.440;2023-01-28T10:01:42;97940.88;;;12.15;42.75
78073;BME280;67281;48.770;11.440;2023-01-28T10:04:33;97946.13;;;12.15;42.10
78073;BME280;67281;48.770;11.440;2023-01-28T10:07:19;97939.19;;;12.14;42.50
78073;BME280;67281;48.770;11.440;2023-01-28T10:10:05;97936.66;;;12.13;42.32
78073;BME280;67281;48.770;11.440;2023-01-28T10:12:52;97940.22;;;12.12;42.32
78073;BME280;67281;48.770;11.440;2023-01-28T10:18:12;97942.84;;;12.12;42.81
78073;BME280;67281;48.770;11.440;2023-01-28T10:20:45;97941.06;;;12.12;42.48
78073;BME280;67281;48.770;11.440;2023-01-28T10:23:18;97939.38;;;12.11;42.24
78073;BME280;67281;48.770;11.440;2023-01-28T10:25:47;97934.97;;;12.12;42.23
78073;BME280;67281;48.770;11.440;2023-01-28T10:28:26;97936.66;;;12.13;42.25
78073;BME280;67281;48.770;11.440;2023-01-28T10:30:54;97936.84;;;12.10;42.57
78073;BME280;67281;48.770;11.440;2023-01-28T10:35:55;97942.75;;;12.13;42.58
78073;BME280;67281;48.770;11.440;2023-01-28T10:38:23;97941.81;;;12.14;42.19
78073;BME280;67281;48.770;11.440;2023-01-28T10:40:51;97941.81;;;12.14;42.89
78073;BME280;67281;48.770;11.440;2023-01-28T10:43:22;97940.22;;;12.12;42.49
78073;BME280;67281;48.770;11.440;2023-01-28T10:45:58;97949.59;;;12.16;42.76
78073;BME280;67281;48.770;11.440;2023-01-28T10:48:31;97947.69;;;12.18;42.42
78073;BME280;67281;48.770;11.440;2023-01-28T10:51:00;97941.72;;;12.16;42.76
78073;BME280;67281;48.770;11.440;2023-01-28T10:53:35;97952.22;;;12.16;42.46
78073;BME280;67281;48.770;11.440;2023-01-28T10:56:06;97944.34;;;12.16;42.87
78073;BME280;67281;48.770;11.440;2023-01-28T10:58:45;97954.09;;;12.14;42.68
78073;BME280;67281;48.770;11.440;2023-01-28T11:01:14;97952.31;;;12.14;42.43
78073;BME280;67281;48.770;11.440;2023-01-28T11:03:53;97946.41;;;12.11;42.80
78073;BME280;67281;48.770;11.440;2023-01-28T11:06:28;97934.13;;;12.11;42.42
78073;BME280;67281;48.770;11.440;2023-01-28T11:08:55;97938.44;;;12.12;42.50
78073;BME280;67281;48.770;11.440;2023-01-28T11:11:27;97935.72;;;12.14;42.52
78073;BME280;67281;48.770;11.440;2023-01-28T11:13:54;97925.09;;;12.15;42.23
78073;BME280;67281;48.770;11.440;2023-01-28T11:16:24;97934.56;;;12.18;42.55
78073;BME280;67281;48.770;11.440;2023-01-28T11:19:02;97928.38;;;12.19;42.17
78073;BME280;67281;48.770;11.440;2023-01-28T11:21:31;97937.00;;;12.21;42.19
78073;BME280;67281;48.770;11.440;2023-01-28T11:24:02;97935.22;;;12.22;42.06
78073;BME280;67281;48.770;11.440;2023-01-28T11:26:33;97930.91;;;12.21;42.27
78073;BME280;67281;48.770;11.440;2023-01-28T11:29:02;97929.31;;;12.18;42.39
78073;BME280;67281;48.770;11.440;2023-01-28T11:31:37;97940.66;;;12.18;42.82
78073;BME280;67281;48.770;11.440;2023-01-28T11:34:06;97935.41;;;12.18;42.25
78073;BME280;67281;48.770;11.440;2023-01-28T11:36:33;97931.94;;;12.18;42.82
78073;BME280;67281;48.770;11.440;2023-01-28T11:39:03;97938.88;;;12.19;42.78
78073;BME280;67281;48.770;11.440;2023-01-28T11:41:41;97933.72;;;12.17;42.60
78073;BME280;67281;48.770;11.440;2023-01-28T11:44:21;97937.19;;;12.18;42.36
78073;BME280;67281;48.770;11.440;2023-01-28T11:56:33;97932.88;;;12.17;42.44
78073;BME280;67281;48.770;11.440;2023-01-28T12:01:48;97936.25;;;12.19;42.49
78073;BME280;67281;48.770;11.440;2023-01-28T12:04:22;97927.53;;;12.18;42.15
78073;BME280;67281;48.770;11.440;2023-01-28T12:07:43;97924.91;;;12.18;42.60
78073;BME280;67281;48.770;11.440;2023-01-28T12:13:21;97924.69;;;12.22;42.03
78073;BME280;67281;48.770;11.440;2023-01-28T12:16:10;97927.22;;;12.23;42.28
78073;BME280;67281;48.770;11.440;2023-01-28T12:24:14;97924.50;;;12.25;42.45
78073;BME280;67281;48.770;11.440;2023-01-28T12:27:02;97924.41;;;12.26;42.22
78073;BME280;67281;48.770;11.440;2023-01-28T12:29:36;97928.72;;;12.27;41.97
78073;BME280;67281;48.770;11.440;2023-01-28T12:32:25;97926.94;;;12.28;42.66
78073;BME280;67281;48.770;11.440;2023-01-28T12:38:14;97919.78;;;12.30;42.10
78073;BME280;67281;48.770;11.440;2023-01-28T12:40:50;97914.63;;;12.28;42.18
78073;BME280;67281;48.770;11.440;2023-01-28T12:46:31;97917.38;;;12.27;42.36
78073;BME280;67281;48.770;11.440;2023-01-28T12:52:04;97912.94;;;12.27;42.16
78073;BME280;67281;48.770;11.440;2023-01-28T12:54:35;97918.19;;;12.27;42.37
78073;BME280;67281;48.770;11.440;2023-01-28T12:57:05;97906.94;;;12.25;42.10
78073;BME280;67281;48.770;11.440;2023-01-28T12:59:38;97906.00;;;12.26;42.11
78073;BME280;67281;48.770;11.440;2023-01-28T13:02:15;97915.69;;;12.26;42.55
78073;BME280;67281;48.770;11.440;2023-01-28T13:05:13;97916.63;;;12.25;42.26
78073;BME280;67281;48.770;11.440;2023-01-28T13:10:42;97910.63;;;12.23;42.77
78073;BME280;67281;48.770;11.440;2023-01-28T13:13:18;97915.78;;;12.24;42.75
78073;BME280;67281;48.770;11.440;2023-01-28T13:15:48;97914.00;;;12.25;42.01
78073;BME280;67281;48.770;11.440;2023-01-28T13:21:03;97921.03;;;12.24;42.30
78073;BME280;67281;48.770;11.440;2023-01-28T13:23:38;97918.41;;;12.24;42.50
78073;BME280;67281;48.770;11.440;2023-01-28T13:28:46;97924.50;;;12.25;42.44
78073;BME280;67281;48.770;11.440;2023-01-28T13:31:16;97933.31;;;12.24;42.23
78073;BME280;67281;48.770;11.440;2023-01-28T13:36:30;97925.25;;;12.27;42.55
78073;BME280;67281;48.770;11.440;2023-01-28T13:39:01;97927.97;;;12.25;42.40
78073;BME280;67281;48.770;11.440;2023-01-28T13:44:28;97933.31;;;12.24;42.43
78073;BME280;67281;48.770;11.440;2023-01-28T13:47:12;97929.75;;;12.25;42.23
78073;BME280;67281;48.770;11.440;2023-01-28T13:49:47;97940.25;;;12.25;42.67
78073;BME280;67281;48.770;11.440;2023-01-28T13:52:25;97940.25;;;12.25;42.35
78073;BME280;67281;48.770;11.440;2023-01-28T13:54:54;97944.69;;;12.24;42.48
78073;BME280;67281;48.770;11.440;2023-01-28T14:03:19;97950.78;;;12.25;42.11
78073;BME280;67281;48.770;11.440;2023-01-28T14:05:56;97962.13;;;12.25;42.73
78073;BME280;67281;48.770;11.440;2023-01-28T14:08:51;97953.50;;;12.23;42.48
78073;BME280;67281;48.770;11.440;2023-01-28T14:19:36;97964.84;;;12.24;42.36
78073;BME280;67281;48.770;11.440;2023-01-28T14:22:08;97966.53;;;12.25;42.45
78073;BME280;67281;48.770;11.440;2023-01-28T14:24:38;97970.75;;;12.27;42.75
78073;BME280;67281;48.770;11.440;2023-01-28T14:27:36;97977.78;;;12.27;42.85
78073;BME280;67281;48.770;11.440;2023-01-28T14:30:40;97963.72;;;12.28;42.42
78073;BME280;67281;48.770;11.440;2023-01-28T14:33:10;97965.50;;;12.27;42.25
78073;BME280;67281;48.770;11.440;2023-01-28T14:35:39;97976.00;;;12.27;42.48
78073;BME280;67281;48.770;11.440;2023-01-28T14:38:14;97977.69;;;12.28;42.62
78073;BME280;67281;48.770;11.440;2023-01-28T14:40:41;97976.75;;;12.29;42.47